filipinasexdiary.com alexa rank chart, filipinasexdiary.com alexa rank daily changes

filipinasexdiary.com alexa rank chart, filipinasexdiary.com alexa rank daily changes

filipinasexdiary.com
Actual rank:
936 330

RANK HISTORY

Date Rank Diff
2017/11/20 936 330 +63 763
2017/11/19 872 567 -33 753
2017/11/18 906 320 +120 139
2017/11/17 786 181 +45 032
2017/11/16 741 149 +21 424
2017/11/15 719 725 +123 419
2017/11/14 596 306 -1 863
2017/11/13 598 169 +1 077
2017/11/12 597 092 -27
2017/11/11 597 119 +6 277
2017/11/10 590 842 -7 601
2017/11/09 598 443 -6 309
2017/11/08 604 752 +5 128
2017/11/07 599 624 -18 585
2017/11/06 618 209 -3 498
2017/11/05 621 707 -46 208
2017/11/04 667 915 +8 476
2017/11/03 659 439 +14 244
2017/11/02 645 195 +5 569
2017/11/01 639 626 +7 032
2017/10/31 632 594 -6 047
2017/10/30 638 641 -16 293
2017/10/29 654 934 -17 063
2017/10/28 671 997 +10 807
2017/10/27 661 190 +21 109
2017/10/26 640 081 -31 902
2017/10/25 671 983 +37 461
2017/10/24 634 522 +17 883
2017/10/23 616 639 -14 920
2017/10/22 631 559 +16 631
2017/10/21 614 928 -899
2017/10/20 615 827 -230
2017/10/19 616 057 +13 505
2017/10/18 602 552 -57 705
2017/10/17 660 257 -37 070
2017/10/16 697 327 -147 098
2017/10/14 844 425 +1 252
2017/10/13 843 173 +41 269
2017/10/12 801 904 +49 567
2017/10/11 752 337 -5 484
2017/10/10 757 821 +4 027
2017/10/09 753 794 +9 865
2017/10/08 743 929 -26 539
2017/10/07 770 468 +173
2017/10/06 770 295 +22 398
2017/10/05 747 897 +15 143
2017/10/04 732 754 +56 841
2017/10/03 675 913 -1 934
2017/10/02 677 847 +95 162
2017/10/01 582 685 -15 428
2017/09/30 598 113 +11 659
2017/09/29 586 454 -12 481
2017/09/28 598 935 -3 448
2017/09/27 602 383 -13 041
2017/09/26 615 424 +346
2017/09/25 615 078 -30 232
2017/09/24 645 310 -42 742
2017/09/23 688 052 +4 724
2017/09/22 683 328

WIDGET FOR YOUR SITE

DOMAINS WITH THE NEAREST RANK

Domain Rank
bankofkarditsa.gr 936 325
asianmilfpics.info 936 326
nexus7.ir 936 327
esquire.com.tr 936 328
gfxtotal.com.br 936 329
filipinasexdiary.com 936 330
cvme.lt 936 331
rustomjeeurbania-thane.in 936 332
freefuckcams.com 936 333
webdevbr.com.br 936 334
wp-staging.com 936 335

DOMAINS WITH THE NEAREST RANK BY TLD .com

Domain Rank
isokineticsinc.com 936 308
thirddegreefilms.com 936 310
zjoubbs.com 936 312
callwithus.com 936 317
rcommander.com 936 321
filipinasexdiary.com 936 330
freefuckcams.com 936 333
wp-staging.com 936 335
schoolofnaturalskincare.com 936 336
gksea.com 936 341
hollain.com 936 344